Time;durP1;ratioP1;P1;durP2;ratioP2;P2;SDS_P1;SDS_P2;PMS_P1;PMS_P2;Temp;Humidity;BMP_temperature;BMP_pressure;BME280_temperature;BME280_humidity;BME280_pressure;Samples;Min_cycle;Max_cycle;Signal;HPM_P1;HPM_P2
2022/07/14 00:00:55;;;;;;;7.15;3.67;;;21.20;99.90;;;;;;5052887;28;20631;-43
2022/07/14 00:03:21;;;;;;;8.30;3.72;;;21.20;99.90;;;;;;5052575;28;20171;-43
2022/07/14 00:05:46;;;;;;;9.57;3.72;;;21.10;99.90;;;;;;5052458;28;20206;-43
2022/07/14 00:08:12;;;;;;;9.30;3.53;;;21.20;99.90;;;;;;5052597;28;20631;-42
2022/07/14 00:10:38;;;;;;;9.70;3.08;;;21.10;99.90;;;;;;5040948;28;20186;-42
2022/07/14 00:13:04;;;;;;;10.73;3.30;;;21.10;99.90;;;;;;5043053;28;20189;-48
2022/07/14 00:15:30;;;;;;;10.30;4.15;;;21.10;99.90;;;;;;5036214;28;20614;-42
2022/07/14 00:17:58;;;;;;;10.50;3.35;;;21.00;99.90;;;;;;5044995;28;20292;-44
2022/07/14 00:20:24;;;;;;;10.27;3.60;;;21.00;99.90;;;;;;5036372;28;20175;-42
2022/07/14 00:22:50;;;;;;;5.00;2.90;;;20.90;99.90;;;;;;5032307;28;20193;-43
2022/07/14 00:25:16;;;;;;;8.00;3.33;;;21.00;99.90;;;;;;5032182;28;20163;-44
2022/07/14 00:27:41;;;;;;;8.80;3.28;;;21.00;99.90;;;;;;5032064;28;20659;-42
2022/07/14 00:30:07;;;;;;;10.23;3.25;;;21.00;99.90;;;;;;5032227;28;20174;-42
2022/07/14 00:32:34;;;;;;;9.82;3.42;;;20.90;99.90;;;;;;5032229;28;20166;-43
2022/07/14 00:35:00;;;;;;;11.25;3.55;;;20.90;99.90;;;;;;5032292;28;20229;-42
2022/07/14 00:37:27;;;;;;;10.82;3.22;;;20.90;99.90;;;;;;5032173;28;20195;-43
2022/07/14 00:39:55;;;;;;;9.07;3.35;;;21.80;99.90;;;;;;5032356;28;20590;-42
2022/07/14 00:42:49;;;;;;;10.43;3.60;;;20.80;99.90;;;;;;5035621;28;20178;-41
2022/07/14 00:45:20;;;;;;;9.57;3.47;;;20.80;99.90;;;;;;5038445;28;20222;-43
2022/07/14 00:47:47;;;;;;;10.13;4.03;;;20.80;99.90;;;;;;5041442;28;20182;-42
2022/07/14 00:50:14;;;;;;;6.75;3.42;;;20.80;99.90;;;;;;5046285;28;20179;-43
2022/07/14 00:52:43;;;;;;;7.22;3.00;;;20.70;99.90;;;;;;5031756;28;20574;-43
2022/07/14 00:55:10;;;;;;;11.07;3.50;;;20.80;99.90;;;;;;5031887;28;20175;-42
2022/07/14 00:57:36;;;;;;;13.55;3.42;;;20.70;99.90;;;;;;5031595;28;20565;-43
2022/07/14 01:00:07;;;;;;;9.75;3.60;;;20.70;99.90;;;;;;5031708;28;20162;-43
2022/07/14 01:02:33;;;;;;;7.85;3.53;;;20.80;99.90;;;;;;5031870;28;20172;-43
2022/07/14 01:04:59;;;;;;;13.10;4.03;;;20.70;99.90;;;;;;5031505;28;20170;-43
2022/07/14 01:07:24;;;;;;;12.60;3.38;;;20.70;99.90;;;;;;5031931;28;20179;-42
2022/07/14 01:09:50;;;;;;;9.60;3.22;;;20.80;99.90;;;;;;5031648;28;20214;-43
2022/07/14 01:12:16;;;;;;;10.23;3.42;;;20.70;99.90;;;;;;5035507;28;20194;-42
2022/07/14 01:14:41;;;;;;;9.02;3.38;;;20.70;99.90;;;;;;5037621;28;20179;-42
2022/07/14 01:17:09;;;;;;;8.15;3.00;;;20.70;99.90;;;;;;5044969;28;20202;-43
2022/07/14 01:19:35;;;;;;;12.85;3.70;;;20.60;99.90;;;;;;5031486;28;20171;-43
2022/07/14 01:22:01;;;;;;;14.02;3.88;;;20.50;99.90;;;;;;5030383;28;20178;-42
2022/07/14 01:24:29;;;;;;;11.38;4.50;;;20.50;99.90;;;;;;5031602;28;20534;-43
2022/07/14 01:26:56;;;;;;;9.18;3.40;;;20.50;99.90;;;;;;5032609;28;20671;-42
2022/07/14 01:29:22;;;;;;;13.10;3.38;;;20.50;99.90;;;;;;5039739;28;20179;-44
2022/07/14 01:31:48;;;;;;;10.50;3.67;;;20.50;99.90;;;;;;5046440;28;20236;-43
2022/07/14 01:34:13;;;;;;;19.92;4.18;;;20.50;99.90;;;;;;5031621;28;20199;-42
2022/07/14 01:36:39;;;;;;;8.48;3.10;;;20.50;99.90;;;;;;5031168;28;20172;-43
2022/07/14 01:39:06;;;;;;;9.73;3.92;;;20.30;99.90;;;;;;5031413;28;20175;-43
2022/07/14 01:41:32;;;;;;;10.65;3.10;;;20.30;99.90;;;;;;5035560;28;20266;-42
2022/07/14 01:43:58;;;;;;;12.30;3.95;;;20.30;99.90;;;;;;5035352;28;20674;-43
2022/07/14 01:46:23;;;;;;;11.95;3.67;;;20.30;99.90;;;;;;5035469;28;20163;-43
2022/07/14 01:48:49;;;;;;;11.80;3.63;;;20.30;99.90;;;;;;5035281;28;20167;-43
2022/07/14 01:51:15;;;;;;;10.80;4.07;;;20.30;99.90;;;;;;5035182;28;20530;-53
2022/07/14 01:53:41;;;;;;;9.48;3.40;;;20.30;99.90;;;;;;5035212;28;20175;-53
2022/07/14 01:56:11;;;;;;;18.33;5.20;;;20.20;99.90;;;;;;5035153;28;20167;-53
2022/07/14 01:58:37;;;;;;;13.48;4.15;;;20.10;99.90;;;;;;5042153;28;20294;-52
2022/07/14 02:03:47;;;;;;;19.25;5.28;;;20.10;99.90;;;;;;5044636;28;20220;-54
2022/07/14 02:06:13;;;;;;;11.38;4.57;;;20.20;99.90;;;;;;5036290;28;20619;-53
2022/07/14 02:08:39;;;;;;;16.45;4.05;;;20.10;99.90;;;;;;5034978;28;20167;-51
2022/07/14 02:13:57;;;;;;;14.88;4.28;;;20.10;99.90;;;;;;5035030;28;20171;-51
2022/07/14 02:16:23;;;;;;;12.18;4.22;;;20.10;99.90;;;;;;5034946;28;20174;-53
2022/07/14 02:18:49;;;;;;;13.18;3.90;;;20.20;99.90;;;;;;5034553;28;20222;-52
2022/07/14 02:21:15;;;;;;;9.98;3.95;;;20.20;99.90;;;;;;5034723;28;20164;-53
2022/07/14 02:23:41;;;;;;;13.40;4.30;;;20.30;99.90;;;;;;5034441;28;20167;-52
2022/07/14 02:26:12;;;;;;;17.90;4.85;;;20.10;99.90;;;;;;5034498;28;20214;-53
2022/07/14 02:28:38;;;;;;;15.45;4.75;;;20.20;99.90;;;;;;5034458;28;20668;-53
2022/07/14 02:31:04;;;;;;;10.52;3.92;;;20.20;99.90;;;;;;5034445;28;20301;-53
2022/07/14 02:33:29;;;;;;;18.15;4.80;;;20.10;99.90;;;;;;5045299;28;20269;-53
2022/07/14 02:35:55;;;;;;;10.02;3.55;;;20.00;99.90;;;;;;5035232;28;20311;-52
2022/07/14 02:38:21;;;;;;;10.48;3.72;;;19.90;99.90;;;;;;5034182;28;20214;-53
2022/07/14 02:40:47;;;;;;;9.18;3.53;;;19.90;99.90;;;;;;5036770;28;20187;-53
2022/07/14 02:43:12;;;;;;;13.82;4.53;;;19.80;99.90;;;;;;5046271;28;20175;-52
2022/07/14 02:45:38;;;;;;;12.80;4.10;;;19.70;99.90;;;;;;5039025;28;20257;-52
2022/07/14 02:48:06;;;;;;;10.32;3.75;;;19.70;99.90;;;;;;5034391;28;20181;-53
2022/07/14 02:50:32;;;;;;;15.95;4.32;;;19.60;99.90;;;;;;5033498;28;20230;-53
2022/07/14 02:52:58;;;;;;;17.80;4.65;;;19.70;99.90;;;;;;5033343;28;20179;-53
2022/07/14 02:55:24;;;;;;;15.88;4.82;;;19.60;99.90;;;;;;5034337;28;20225;-47
2022/07/14 02:57:50;;;;;;;14.73;5.03;;;19.60;99.90;;;;;;5034213;28;20207;-51
2022/07/14 03:00:17;;;;;;;12.07;4.38;;;19.60;99.90;;;;;;5034123;28;20178;-52
2022/07/14 03:02:42;;;;;;;12.68;4.75;;;19.60;99.90;;;;;;5033731;28;20202;-53
2022/07/14 03:05:08;;;;;;;13.82;4.80;;;19.60;99.90;;;;;;5033677;28;20606;-49
2022/07/14 03:07:34;;;;;;;13.23;4.28;;;19.60;99.90;;;;;;5033767;28;20175;-51
2022/07/14 03:09:59;;;;;;;16.02;4.95;;;19.60;99.90;;;;;;5033691;28;20666;-49
2022/07/14 03:12:25;;;;;;;15.73;4.43;;;19.60;99.90;;;;;;5033954;28;20181;-46
2022/07/14 03:14:50;;;;;;;13.82;4.68;;;19.60;99.90;;;;;;5033761;28;20171;-49
2022/07/14 03:17:17;;;;;;;9.05;3.58;;;19.60;99.90;;;;;;5033448;28;20206;-50
2022/07/14 03:19:43;;;;;;;15.48;4.63;;;19.60;99.90;;;;;;5033825;28;20176;-46
2022/07/14 03:22:09;;;;;;;18.80;4.93;;;19.60;99.90;;;;;;5033725;28;20183;-49
2022/07/14 03:24:34;;;;;;;14.00;4.53;;;19.50;99.90;;;;;;5033351;28;20176;-49
2022/07/14 03:27:00;;;;;;;10.57;4.53;;;19.60;99.90;;;;;;5033548;28;20179;-42
2022/07/14 03:29:27;;;;;;;14.52;4.45;;;19.50;99.90;;;;;;5033584;28;20197;-42
2022/07/14 03:31:54;;;;;;;9.68;3.60;;;19.60;99.90;;;;;;5033561;28;20213;-44
2022/07/14 03:34:19;;;;;;;11.88;4.13;;;19.50;99.90;;;;;;5033337;28;20159;-42
2022/07/14 03:36:45;;;;;;;11.65;4.03;;;19.50;99.90;;;;;;5033130;28;20271;-41
2022/07/14 03:39:10;;;;;;;13.18;4.22;;;19.40;99.90;;;;;;5033534;28;20187;-41
2022/07/14 03:41:36;;;;;;;11.65;4.15;;;19.40;99.90;;;;;;5033153;28;20662;-42
2022/07/14 03:44:02;;;;;;;15.98;4.40;;;19.30;99.90;;;;;;5033078;28;20633;-42
2022/07/14 03:46:27;;;;;;;12.18;4.00;;;19.30;99.90;;;;;;5032911;28;20164;-42
2022/07/14 03:48:53;;;;;;;13.85;4.40;;;19.20;99.90;;;;;;5033404;28;20172;-41
2022/07/14 03:51:18;;;;;;;13.85;4.05;;;19.20;99.90;;;;;;5032849;28;20172;-42
2022/07/14 03:53:44;;;;;;;14.68;4.85;;;19.30;99.90;;;;;;5032815;28;20174;-42
2022/07/14 03:56:10;;;;;;;12.02;3.83;;;19.30;99.90;;;;;;5032839;28;20203;-41
2022/07/14 03:58:35;;;;;;;13.13;4.25;;;19.30;99.90;;;;;;5032770;28;20218;-41
2022/07/14 04:01:02;;;;;;;18.15;4.45;;;19.40;99.90;;;;;;5032706;28;20552;-42
2022/07/14 04:03:28;;;;;;;13.82;4.10;;;19.30;99.90;;;;;;5032284;28;20546;-43
2022/07/14 04:05:53;;;;;;;10.05;4.13;;;19.30;99.90;;;;;;5032819;28;20298;-42
2022/07/14 04:08:19;;;;;;;14.25;4.10;;;19.30;99.90;;;;;;5032542;28;20174;-41
2022/07/14 04:10:44;;;;;;;18.23;4.15;;;19.20;99.90;;;;;;5032741;28;20207;-41
2022/07/14 04:13:10;;;;;;;15.68;5.07;;;19.30;99.90;;;;;;5032437;28;20198;-42
2022/07/14 04:15:38;;;;;;;13.77;3.72;;;19.30;99.90;;;;;;5032452;28;20175;-48
2022/07/14 04:18:03;;;;;;;13.32;4.90;;;19.20;99.90;;;;;;5032332;28;20241;-41
2022/07/14 04:20:29;;;;;;;15.30;4.63;;;19.20;99.90;;;;;;5032313;28;20175;-42
2022/07/14 04:22:55;;;;;;;12.57;4.13;;;19.20;99.90;;;;;;5032864;28;20171;-42
2022/07/14 04:25:20;;;;;;;13.02;4.45;;;19.20;99.90;;;;;;5032680;28;20579;-41
2022/07/14 04:27:46;;;;;;;13.20;4.32;;;19.20;99.90;;;;;;5032188;28;20163;-42
2022/07/14 04:30:13;;;;;;;15.75;4.60;;;19.20;99.90;;;;;;5032153;28;20167;-43
2022/07/14 04:32:38;;;;;;;14.10;4.50;;;19.20;99.90;;;;;;5034929;28;20698;-42
2022/07/14 04:35:04;;;;;;;12.60;4.32;;;19.20;99.90;;;;;;5051169;28;20163;-42
2022/07/14 04:37:30;;;;;;;12.70;4.85;;;19.20;99.90;;;;;;5050875;28;20256;-42
2022/07/14 04:39:56;;;;;;;13.30;4.95;;;19.20;99.90;;;;;;5051022;28;20212;-42
2022/07/14 04:42:23;;;;;;;12.30;3.90;;;19.20;99.90;;;;;;5052136;28;20209;-43
2022/07/14 04:44:49;;;;;;;16.17;4.43;;;19.20;99.90;;;;;;5051470;28;20211;-43
2022/07/14 04:47:15;;;;;;;16.90;5.35;;;19.20;99.90;;;;;;5051636;28;20171;-43
2022/07/14 04:52:25;;;;;;;14.20;4.82;;;19.10;99.90;;;;;;5051867;28;20584;-42
2022/07/14 04:54:51;;;;;;;14.50;5.25;;;19.20;99.90;;;;;;5050532;28;20225;-42
2022/07/14 04:57:17;;;;;;;13.85;5.55;;;19.20;99.90;;;;;;5049926;28;20237;-42
2022/07/14 04:59:42;;;;;;;17.48;5.70;;;19.10;99.90;;;;;;5050281;28;20248;-42
2022/07/14 05:02:08;;;;;;;19.08;6.40;;;19.10;99.90;;;;;;5050280;28;20636;-42
2022/07/14 05:04:34;;;;;;;16.85;6.10;;;19.10;99.90;;;;;;5050656;28;20174;-42
2022/07/14 05:07:00;;;;;;;21.63;6.35;;;19.10;99.90;;;;;;5050104;28;20221;-42
2022/07/14 05:09:25;;;;;;;19.15;5.68;;;19.10;99.90;;;;;;5044193;28;20182;-42
2022/07/14 05:11:52;;;;;;;23.83;6.90;;;19.20;99.90;;;;;;5051982;28;20631;-42
2022/07/14 05:14:18;;;;;;;14.73;6.28;;;19.20;99.90;;;;;;5050948;28;20174;-41
2022/07/14 05:16:48;;;;;;;28.65;5.47;;;19.30;99.90;;;;;;5051587;28;20587;-44
2022/07/14 05:19:15;;;;;;;18.08;6.10;;;19.40;99.90;;;;;;5051412;28;20257;-42
2022/07/14 05:21:41;;;;;;;16.92;6.13;;;19.50;99.90;;;;;;5051358;28;20171;-53
2022/07/14 05:24:06;;;;;;;14.25;5.57;;;19.60;99.90;;;;;;5051334;28;20176;-50
2022/07/14 05:26:32;;;;;;;16.25;4.97;;;19.80;99.90;;;;;;5051683;28;20552;-46
2022/07/14 05:28:57;;;;;;;14.85;5.45;;;19.70;99.90;;;;;;5051592;28;20171;-46
2022/07/14 05:31:23;;;;;;;13.88;4.88;;;19.80;99.90;;;;;;5051783;28;20171;-52
2022/07/14 05:33:49;;;;;;;13.85;4.63;;;19.90;99.90;;;;;;5051214;28;20174;-54
2022/07/14 05:36:15;;;;;;;18.67;5.25;;;19.90;99.90;;;;;;5051409;28;20604;-52
2022/07/14 05:38:41;;;;;;;13.20;4.47;;;20.00;99.90;;;;;;5051054;28;20593;-52
2022/07/14 05:41:06;;;;;;;9.57;4.28;;;20.10;99.90;;;;;;5051189;28;20277;-53
2022/07/14 05:43:32;;;;;;;17.17;5.47;;;20.00;99.90;;;;;;5051190;28;20640;-53
2022/07/14 05:46:08;;;;;;;11.75;4.93;;;20.00;99.90;;;;;;5051050;28;20166;-49
2022/07/14 05:48:34;;;;;;;13.23;5.53;;;20.00;99.90;;;;;;5051344;28;20219;-52
2022/07/14 05:51:09;;;;;;;17.23;4.85;;;19.80;99.90;;;;;;5051163;28;20162;-51
2022/07/14 05:53:35;;;;;;;17.33;4.78;;;19.90;99.90;;;;;;5051375;28;20581;-49
2022/07/14 05:56:02;;;;;;;15.00;4.90;;;19.80;99.90;;;;;;5051063;28;20170;-49
2022/07/14 05:58:29;;;;;;;12.20;4.55;;;19.90;99.90;;;;;;5051170;28;20207;-51
2022/07/14 06:00:55;;;;;;;21.15;5.18;;;20.00;99.90;;;;;;5051369;28;20166;-50
2022/07/14 06:03:20;;;;;;;16.35;5.82;;;20.10;99.90;;;;;;5051551;28;20201;-52
2022/07/14 06:05:46;;;;;;;11.45;4.30;;;20.30;99.90;;;;;;5050866;28;20219;-45
2022/07/14 06:08:12;;;;;;;22.75;5.38;;;20.20;99.90;;;;;;5051046;28;20262;-52
2022/07/14 06:10:37;;;;;;;14.45;5.13;;;20.00;99.90;;;;;;5051296;28;20243;-51
2022/07/14 06:13:03;;;;;;;16.40;5.28;;;20.10;99.90;;;;;;5050893;28;20577;-53
2022/07/14 06:15:30;;;;;;;17.77;4.68;;;20.20;99.90;;;;;;5050802;28;20179;-51
2022/07/14 06:17:55;;;;;;;17.10;5.30;;;20.10;99.90;;;;;;5051025;28;20207;-51
2022/07/14 06:20:21;;;;;;;15.18;4.53;;;20.10;99.90;;;;;;5050988;28;20163;-52
2022/07/14 06:22:48;;;;;;;13.80;4.88;;;20.20;99.90;;;;;;5051088;28;20178;-52
2022/07/14 06:25:14;;;;;;;20.35;5.22;;;20.20;99.90;;;;;;5050907;28;20616;-51
2022/07/14 06:27:39;;;;;;;15.52;5.00;;;20.30;99.90;;;;;;5054427;28;20179;-52
2022/07/14 06:30:06;;;;;;;12.45;4.65;;;20.40;99.90;;;;;;5054657;28;20527;-50
2022/07/14 06:32:32;;;;;;;11.85;4.43;;;20.40;99.90;;;;;;5049311;28;20257;-48
2022/07/14 06:34:59;;;;;;;16.42;5.25;;;20.40;99.90;;;;;;5036973;28;20219;-49
2022/07/14 06:37:25;;;;;;;12.38;5.15;;;20.30;99.90;;;;;;5044785;28;20749;-48
2022/07/14 06:39:51;;;;;;;15.32;4.53;;;20.50;99.90;;;;;;5044467;28;20187;-53
2022/07/14 06:42:17;;;;;;;12.95;4.47;;;20.70;99.90;;;;;;5034587;28;20233;-53
2022/07/14 06:44:43;;;;;;;18.55;5.38;;;20.60;99.90;;;;;;5037092;28;20187;-53
2022/07/14 06:47:08;;;;;;;14.77;5.05;;;20.80;99.90;;;;;;5042813;28;20186;-47
2022/07/14 06:49:34;;;;;;;13.80;4.68;;;20.80;99.90;;;;;;5034365;28;20158;-50
2022/07/14 06:52:00;;;;;;;17.52;5.20;;;20.80;99.90;;;;;;5034253;28;20581;-49
2022/07/14 06:54:25;;;;;;;17.08;4.65;;;20.70;99.90;;;;;;5034330;28;20245;-46
2022/07/14 06:56:51;;;;;;;15.25;4.93;;;20.80;99.90;;;;;;5034167;28;20684;-50
2022/07/14 06:59:17;;;;;;;14.60;4.60;;;21.00;99.90;;;;;;5034719;28;20186;-49
2022/07/14 07:01:43;;;;;;;18.60;5.20;;;20.90;99.90;;;;;;5043482;28;20170;-43
2022/07/14 07:04:08;;;;;;;17.45;4.82;;;21.00;99.90;;;;;;5043577;28;20261;-43
2022/07/14 07:06:46;;;;;;;15.57;5.15;;;21.00;99.90;;;;;;5044654;28;20219;-42
2022/07/14 07:09:15;;;;;;;13.38;4.88;;;21.20;99.90;;;;;;5042377;28;20179;-42
2022/07/14 07:11:43;;;;;;;15.38;5.15;;;21.20;99.90;;;;;;5033895;28;20175;-42
2022/07/14 07:14:09;;;;;;;19.83;5.22;;;21.40;99.90;;;;;;5033868;28;20233;-42
2022/07/14 07:16:35;;;;;;;16.92;4.95;;;21.50;99.90;;;;;;5033562;28;20621;-42
2022/07/14 07:19:01;;;;;;;17.75;4.78;;;21.50;99.90;;;;;;5033690;28;20214;-42
2022/07/14 07:21:26;;;;;;;15.68;5.28;;;21.50;99.90;;;;;;5033561;28;20174;-42
2022/07/14 07:23:54;;;;;;;16.02;4.88;;;21.40;99.90;;;;;;5033775;28;20171;-43
2022/07/14 07:26:22;;;;;;;13.73;4.82;;;21.60;99.90;;;;;;5034055;28;20168;-42
2022/07/14 07:28:48;;;;;;;13.10;4.63;;;21.80;99.90;;;;;;5033386;28;20171;-42
2022/07/14 07:31:14;;;;;;;12.48;4.22;;;21.90;99.90;;;;;;5033297;28;20712;-42
2022/07/14 07:33:39;;;;;;;17.85;5.00;;;22.30;99.90;;;;;;5033237;28;20171;-42
2022/07/14 07:36:05;;;;;;;21.88;5.50;;;22.60;99.90;;;;;;5033262;28;20167;-42
2022/07/14 07:38:31;;;;;;;18.15;5.65;;;22.70;99.90;;;;;;5032381;28;20609;-42
2022/07/14 07:41:00;;;;;;;15.68;4.82;;;22.60;99.90;;;;;;5033181;28;20163;-42
2022/07/14 07:43:26;;;;;;;17.45;5.05;;;22.70;99.90;;;;;;5033182;28;20567;-43
2022/07/14 07:45:52;;;;;;;13.93;4.38;;;22.70;99.90;;;;;;5033469;28;20259;-42
2022/07/14 07:48:17;;;;;;;19.63;4.43;;;22.60;99.90;;;;;;5032916;28;20242;-42
2022/07/14 07:50:44;;;;;;;18.65;4.60;;;22.60;99.90;;;;;;5032954;28;20250;-42
2022/07/14 07:53:10;;;;;;;15.07;4.07;;;22.80;99.90;;;;;;5033008;28;20168;-42
2022/07/14 07:55:36;;;;;;;17.25;4.65;;;22.50;99.90;;;;;;5032901;28;20179;-43
2022/07/14 07:58:02;;;;;;;14.65;4.32;;;22.50;99.90;;;;;;5032731;28;20206;-42
2022/07/14 08:00:28;;;;;;;12.63;4.15;;;22.40;99.90;;;;;;5032658;28;20164;-42
2022/07/14 08:02:54;;;;;;;12.88;4.13;;;22.20;99.90;;;;;;5048203;28;20174;-42
2022/07/14 08:05:22;;;;;;;13.00;4.32;;;22.40;99.90;;;;;;5032907;28;20517;-42
2022/07/14 08:07:49;;;;;;;17.35;3.60;;;22.70;99.90;;;;;;5032694;28;20183;-42
2022/07/14 08:10:15;;;;;;;9.82;3.30;;;22.80;99.90;;;;;;5032976;28;20589;-42
2022/07/14 08:12:42;;;;;;;8.95;3.47;;;23.00;99.90;;;;;;5032568;28;20171;-42
2022/07/14 08:15:08;;;;;;;14.88;3.70;;;23.30;99.90;;;;;;5032492;28;20698;-43
2022/07/14 08:17:34;;;;;;;16.73;4.03;;;23.20;99.90;;;;;;5032397;28;20202;-42
2022/07/14 08:19:59;;;;;;;15.07;3.97;;;23.10;99.90;;;;;;5032676;28;20539;-42
2022/07/14 08:22:26;;;;;;;7.38;3.03;;;23.30;99.90;;;;;;5032434;28;20521;-42
2022/07/14 08:24:53;;;;;;;8.82;2.92;;;23.60;99.90;;;;;;5032720;28;20205;-42
2022/07/14 08:27:19;;;;;;;12.05;3.10;;;23.70;99.90;;;;;;5048069;28;20247;-42
2022/07/14 08:29:45;;;;;;;7.45;2.80;;;24.10;99.90;;;;;;5032213;28;20194;-43
2022/07/14 08:32:11;;;;;;;15.75;3.85;;;23.70;99.90;;;;;;5032149;28;20168;-48
2022/07/14 08:34:37;;;;;;;10.70;3.00;;;23.70;99.90;;;;;;5032325;28;20788;-48
2022/07/14 08:37:03;;;;;;;9.82;3.35;;;23.90;99.90;;;;;;5031992;28;20164;-43
2022/07/14 08:39:29;;;;;;;12.05;3.47;;;24.00;99.90;;;;;;5030803;28;20202;-49
2022/07/14 08:41:55;;;;;;;15.70;3.58;;;24.00;99.90;;;;;;5030848;28;20159;-48
2022/07/14 08:44:22;;;;;;;13.88;3.45;;;23.80;99.90;;;;;;5032214;28;20179;-51
2022/07/14 08:46:47;;;;;;;19.75;4.50;;;23.70;99.90;;;;;;5032001;28;20213;-46
2022/07/14 08:49:14;;;;;;;11.35;3.90;;;23.90;99.90;;;;;;5031786;28;20242;-47
2022/07/14 08:51:42;;;;;;;12.80;4.20;;;24.00;99.90;;;;;;5032101;28;20190;-48
2022/07/14 08:54:09;;;;;;;10.18;3.63;;;23.60;99.90;;;;;;5031863;28;20167;-47
2022/07/14 08:56:35;;;;;;;17.73;4.18;;;23.90;99.90;;;;;;5031779;28;20262;-43
2022/07/14 08:59:01;;;;;;;13.65;4.10;;;24.00;99.90;;;;;;5031697;28;20206;-52
2022/07/14 09:01:26;;;;;;;19.38;4.15;;;24.00;99.90;;;;;;5031723;28;20698;-53
2022/07/14 09:03:53;;;;;;;8.85;3.65;;;24.30;99.90;;;;;;5031803;28;20171;-53
2022/07/14 09:06:54;;;;;;;9.20;3.85;;;24.00;99.90;;;;;;5031743;28;20265;-51
2022/07/14 09:09:34;;;;;;;9.65;4.25;;;24.00;99.90;;;;;;5042854;28;20178;-52
2022/07/14 09:12:09;;;;;;;13.15;4.35;;;24.00;99.90;;;;;;5050591;28;20162;-55
2022/07/14 09:17:25;;;;;;;16.45;4.45;;;24.40;99.90;;;;;;5050868;28;20561;-54
2022/07/14 09:20:09;;;;;;;14.70;3.80;;;24.30;99.90;;;;;;5050759;28;20210;-52
2022/07/14 09:22:36;;;;;;;13.80;4.40;;;24.30;99.90;;;;;;5050100;28;20171;-49
2022/07/14 09:25:05;;;;;;;15.60;4.07;;;24.20;99.90;;;;;;5049837;28;20249;-51
2022/07/14 09:27:31;;;;;;;11.95;4.13;;;24.10;99.90;;;;;;5046789;28;20643;-50
2022/07/14 09:29:57;;;;;;;11.00;3.70;;;24.10;99.90;;;;;;5057938;28;20235;-50
2022/07/14 09:32:48;;;;;;;11.60;3.58;;;24.20;99.90;;;;;;5070090;28;20710;-52
2022/07/14 09:35:17;;;;;;;11.13;3.28;;;24.40;99.90;;;;;;5047728;28;20197;-51
2022/07/14 09:37:44;;;;;;;8.68;2.72;;;24.40;99.90;;;;;;5049693;28;20209;-51
2022/07/14 09:40:15;;;;;;;9.00;2.90;;;24.40;99.90;;;;;;5049801;28;20342;-50
2022/07/14 09:42:50;;;;;;;8.20;3.08;;;24.50;99.90;;;;;;5049929;28;20600;-51
2022/07/14 09:45:18;;;;;;;7.47;3.08;;;24.60;99.90;;;;;;5050025;28;20174;-51
2022/07/14 09:48:06;;;;;;;7.55;2.83;;;24.60;99.90;;;;;;5050038;28;20183;-52
2022/07/14 09:50:32;;;;;;;7.38;2.83;;;24.50;99.70;;;;;;5049469;28;20631;-51
2022/07/14 09:52:58;;;;;;;9.90;2.90;;;24.60;99.90;;;;;;5049881;28;20216;-49
2022/07/14 09:55:24;;;;;;;3.80;2.08;;;25.00;99.10;;;;;;5049602;28;20163;-51
2022/07/14 09:57:51;;;;;;;8.38;2.20;;;25.00;94.10;;;;;;5049973;28;20218;-47
2022/07/14 10:00:19;;;;;;;5.85;2.22;;;24.90;91.00;;;;;;5049822;28;20162;-51
2022/07/14 10:02:45;;;;;;;8.77;2.65;;;24.80;91.40;;;;;;5053565;28;20174;-52
2022/07/14 10:05:13;;;;;;;7.38;2.70;;;24.70;92.60;;;;;;5053783;28;20170;-44
2022/07/14 10:07:40;;;;;;;8.50;2.30;;;25.00;94.80;;;;;;5053237;28;20230;-50
2022/07/14 10:10:08;;;;;;;10.13;2.75;;;25.20;93.20;;;;;;5053599;28;20189;-51
2022/07/14 10:12:38;;;;;;;5.15;2.40;;;25.10;94.80;;;;;;5053497;28;20204;-48
2022/07/14 10:15:10;;;;;;;9.90;2.83;;;25.20;95.80;;;;;;5053280;28;20177;-50
2022/07/14 10:17:37;;;;;;;6.70;2.35;;;25.00;96.20;;;;;;5053577;28;20668;-46
2022/07/14 10:20:08;;;;;;;7.60;2.30;;;25.20;94.90;;;;;;5053101;28;20225;-52
2022/07/14 10:22:35;;;;;;;6.22;3.13;;;25.30;93.60;;;;;;5053128;28;20167;-49
2022/07/14 10:25:03;;;;;;;6.40;2.33;;;25.10;95.70;;;;;;5053141;28;20171;-50
2022/07/14 10:27:29;;;;;;;10.13;2.50;;;25.20;96.70;;;;;;5053146;28;20209;-51
2022/07/14 10:29:59;;;;;;;7.03;2.58;;;25.00;99.40;;;;;;5050412;28;20589;-46
2022/07/14 10:32:39;;;;;;;6.60;2.28;;;25.30;99.40;;;;;;5046960;28;20194;-48
2022/07/14 10:35:35;;;;;;;3.28;1.70;;;25.50;98.80;;;;;;5033119;28;20265;-48
2022/07/14 10:38:18;;;;;;;6.43;2.60;;;25.70;97.90;;;;;;5028094;28;20262;-50
2022/07/14 10:41:18;;;;;;;6.15;1.70;;;25.70;97.40;;;;;;5039376;28;20212;-48
2022/07/14 10:44:08;;;;;;;7.72;2.30;;;25.80;95.00;;;;;;5033008;28;20644;-45
2022/07/14 10:46:43;;;;;;;7.78;2.30;;;26.00;93.90;;;;;;5051114;28;20182;-47
2022/07/14 10:49:11;;;;;;;6.22;2.20;;;25.80;93.00;;;;;;5053011;28;20166;-46
2022/07/14 10:51:48;;;;;;;3.97;1.58;;;25.70;90.90;;;;;;5052384;28;20196;-44
2022/07/14 10:54:21;;;;;;;6.00;1.73;;;25.80;91.00;;;;;;5043699;28;20232;-46
2022/07/14 10:56:47;;;;;;;5.85;2.15;;;25.90;91.50;;;;;;5032568;28;20181;-44
2022/07/14 10:59:25;;;;;;;15.18;2.65;;;25.80;92.00;;;;;;5032550;28;20230;-45
2022/07/14 11:02:13;;;;;;;3.97;1.73;;;26.00;91.20;;;;;;5032584;28;20685;-45
2022/07/14 11:05:12;;;;;;;7.85;2.30;;;26.00;92.20;;;;;;5037009;28;20189;-45
2022/07/14 11:07:46;;;;;;;5.43;1.77;;;26.10;92.00;;;;;;5052249;28;20702;-47
2022/07/14 11:10:14;;;;;;;4.72;1.75;;;26.20;91.10;;;;;;5052414;28;20232;-45
2022/07/14 11:13:04;;;;;;;5.72;2.10;;;26.20;91.10;;;;;;5050837;28;20166;-46
2022/07/14 11:15:43;;;;;;;4.57;1.90;;;26.30;90.10;;;;;;5052268;28;20162;-47
2022/07/14 11:18:18;;;;;;;3.47;1.58;;;26.10;90.60;;;;;;5052015;28;20198;-46
2022/07/14 11:20:50;;;;;;;3.53;1.73;;;26.30;86.20;;;;;;5052104;28;20172;-45
2022/07/14 11:23:21;;;;;;;4.85;1.63;;;26.10;87.50;;;;;;5052122;28;20170;-45
2022/07/14 11:25:47;;;;;;;3.50;1.85;;;26.20;89.60;;;;;;5051988;28;20257;-45
2022/07/14 11:28:31;;;;;;;6.40;1.95;;;26.10;87.60;;;;;;5052135;28;20653;-44
2022/07/14 11:31:21;;;;;;;3.42;1.30;;;26.30;88.30;;;;;;5050705;28;20205;-45
2022/07/14 11:37:00;;;;;;;5.60;1.70;;;26.30;90.30;;;;;;5052004;28;20232;-46
2022/07/14 11:39:34;;;;;;;3.88;2.15;;;26.00;90.10;;;;;;5051818;28;20298;-45
2022/07/14 11:42:08;;;;;;;4.53;2.20;;;26.10;90.80;;;;;;5046450;28;20178;-48
2022/07/14 11:44:36;;;;;;;7.22;2.55;;;26.30;91.50;;;;;;5041212;28;20182;-46
2022/07/14 11:47:24;;;;;;;4.60;2.22;;;26.40;90.20;;;;;;5035471;28;20202;-45
2022/07/14 11:49:53;;;;;;;5.20;2.25;;;26.60;89.80;;;;;;5033451;28;20171;-45
2022/07/14 11:52:29;;;;;;;4.45;1.80;;;26.80;91.10;;;;;;5030648;28;20167;-45
2022/07/14 11:54:56;;;;;;;6.72;2.70;;;26.90;88.00;;;;;;5030718;28;20174;-45
2022/07/14 11:57:22;;;;;;;5.20;2.22;;;27.10;89.20;;;;;;5032186;28;20656;-45
2022/07/14 11:59:48;;;;;;;6.55;2.42;;;27.00;90.00;;;;;;5036179;28;20179;-44
2022/07/14 12:02:17;;;;;;;4.13;2.05;;;26.20;90.00;;;;;;5070031;28;20841;-44
2022/07/14 12:04:57;;;;;;;6.70;2.25;;;25.80;91.00;;;;;;5071459;28;20174;-46
2022/07/14 12:07:27;;;;;;;7.15;2.35;;;25.60;90.70;;;;;;5071414;28;20690;-46
2022/07/14 12:09:53;;;;;;;7.13;2.13;;;25.70;91.10;;;;;;5071278;28;20165;-44
2022/07/14 12:12:20;;;;;;;4.20;1.95;;;26.20;90.80;;;;;;5071697;28;20249;-47
2022/07/14 12:14:53;;;;;;;11.13;2.47;;;26.50;91.60;;;;;;5071309;28;20177;-46
2022/07/14 12:17:21;;;;;;;6.07;2.25;;;26.50;90.50;;;;;;5071768;28;20304;-47
2022/07/14 12:19:48;;;;;;;6.00;2.28;;;26.50;90.40;;;;;;5071273;28;20166;-46
2022/07/14 12:22:15;;;;;;;3.85;2.15;;;26.50;90.30;;;;;;5071248;28;20198;-45
2022/07/14 12:24:41;;;;;;;4.82;2.00;;;26.90;90.50;;;;;;5069340;28;20508;-44
2022/07/14 12:27:09;;;;;;;5.70;1.83;;;26.70;88.60;;;;;;5071192;28;20635;-51
2022/07/14 12:29:36;;;;;;;7.88;2.10;;;26.50;88.30;;;;;;5072346;28;20184;-48
2022/07/14 12:32:03;;;;;;;8.73;2.72;;;26.40;90.80;;;;;;5071619;28;20161;-51
2022/07/14 12:34:30;;;;;;;2.47;1.73;;;26.50;89.50;;;;;;5071519;28;20170;-46
2022/07/14 12:36:58;;;;;;;2.80;1.85;;;26.10;88.30;;;;;;5070841;28;20177;-48
2022/07/14 12:39:24;;;;;;;7.18;2.30;;;26.00;89.70;;;;;;5071997;28;20161;-46
2022/07/14 12:41:51;;;;;;;4.93;2.40;;;26.30;90.50;;;;;;5071469;28;20211;-44
2022/07/14 12:44:16;;;;;;;4.45;2.50;;;26.70;90.30;;;;;;5071348;28;20166;-44
2022/07/14 12:46:42;;;;;;;3.90;2.00;;;27.00;90.30;;;;;;5071153;28;20161;-45
2022/07/14 12:49:10;;;;;;;7.13;2.30;;;27.00;86.90;;;;;;5065952;28;20181;-47
2022/07/14 12:51:43;;;;;;;5.38;2.20;;;27.00;88.20;;;;;;5038158;28;20194;-45
2022/07/14 12:54:17;;;;;;;4.50;1.83;;;27.60;88.20;;;;;;5036153;28;20181;-47
2022/07/14 12:56:48;;;;;;;6.35;2.40;;;28.00;89.00;;;;;;5029824;28;20171;-44
2022/07/14 12:59:20;;;;;;;7.22;2.10;;;27.80;86.50;;;;;;5031830;28;20241;-44